sensor_id;sensor_type;location;lat;lon;timestamp;P1;durP1;ratioP1;P2;durP2;ratioP2
22287;SDS011;11312;51.464;6.968;2023-02-13T00:01:58;8.15;;;2.67;;
22287;SDS011;11312;51.464;6.968;2023-02-13T00:04:23;7.75;;;3.15;;
22287;SDS011;11312;51.464;6.968;2023-02-13T00:06:49;5.28;;;2.10;;
22287;SDS011;11312;51.464;6.968;2023-02-13T00:09:15;4.88;;;2.00;;
22287;SDS011;11312;51.464;6.968;2023-02-13T00:11:41;7.07;;;3.38;;
22287;SDS011;11312;51.464;6.968;2023-02-13T00:14:06;7.80;;;3.28;;
22287;SDS011;11312;51.464;6.968;2023-02-13T00:16:32;7.50;;;3.03;;
22287;SDS011;11312;51.464;6.968;2023-02-13T00:18:58;5.28;;;2.20;;
22287;SDS011;11312;51.464;6.968;2023-02-13T00:21:23;4.35;;;1.98;;
22287;SDS011;11312;51.464;6.968;2023-02-13T00:23:49;8.25;;;2.72;;
22287;SDS011;11312;51.464;6.968;2023-02-13T00:26:15;6.40;;;2.65;;
22287;SDS011;11312;51.464;6.968;2023-02-13T00:28:42;7.13;;;3.03;;
22287;SDS011;11312;51.464;6.968;2023-02-13T00:31:09;4.43;;;1.98;;
22287;SDS011;11312;51.464;6.968;2023-02-13T00:33:36;5.10;;;2.25;;
22287;SDS011;11312;51.464;6.968;2023-02-13T00:38:34;6.50;;;2.47;;
22287;SDS011;11312;51.464;6.968;2023-02-13T00:41:00;4.95;;;2.10;;
22287;SDS011;11312;51.464;6.968;2023-02-13T00:43:26;7.47;;;3.05;;
22287;SDS011;11312;51.464;6.968;2023-02-13T00:45:52;6.03;;;2.72;;
22287;SDS011;11312;51.464;6.968;2023-02-13T00:48:18;7.07;;;2.83;;
22287;SDS011;11312;51.464;6.968;2023-02-13T00:50:44;13.23;;;3.08;;
22287;SDS011;11312;51.464;6.968;2023-02-13T00:53:11;4.63;;;2.35;;
22287;SDS011;11312;51.464;6.968;2023-02-13T00:55:37;7.32;;;2.85;;
22287;SDS011;11312;51.464;6.968;2023-02-13T00:58:02;3.58;;;1.70;;
22287;SDS011;11312;51.464;6.968;2023-02-13T01:00:28;6.22;;;2.50;;
22287;SDS011;11312;51.464;6.968;2023-02-13T01:02:55;9.07;;;3.22;;
22287;SDS011;11312;51.464;6.968;2023-02-13T01:05:21;4.82;;;2.45;;
22287;SDS011;11312;51.464;6.968;2023-02-13T01:07:46;5.45;;;2.33;;
22287;SDS011;11312;51.464;6.968;2023-02-13T01:10:12;5.28;;;2.35;;
22287;SDS011;11312;51.464;6.968;2023-02-13T01:12:37;6.78;;;2.78;;
22287;SDS011;11312;51.464;6.968;2023-02-13T01:15:03;4.75;;;2.03;;
22287;SDS011;11312;51.464;6.968;2023-02-13T01:17:30;5.35;;;2.40;;
22287;SDS011;11312;51.464;6.968;2023-02-13T01:19:55;3.75;;;1.85;;
22287;SDS011;11312;51.464;6.968;2023-02-13T01:22:21;6.38;;;2.67;;
22287;SDS011;11312;51.464;6.968;2023-02-13T01:24:46;4.10;;;1.90;;
22287;SDS011;11312;51.464;6.968;2023-02-13T01:27:12;4.18;;;1.92;;
22287;SDS011;11312;51.464;6.968;2023-02-13T01:29:38;5.03;;;2.25;;
22287;SDS011;11312;51.464;6.968;2023-02-13T01:32:03;6.40;;;2.55;;
22287;SDS011;11312;51.464;6.968;2023-02-13T01:34:32;4.05;;;1.88;;
22287;SDS011;11312;51.464;6.968;2023-02-13T01:36:58;3.28;;;1.70;;
22287;SDS011;11312;51.464;6.968;2023-02-13T01:39:24;5.40;;;2.38;;
22287;SDS011;11312;51.464;6.968;2023-02-13T01:41:50;5.03;;;2.40;;
22287;SDS011;11312;51.464;6.968;2023-02-13T01:47:10;5.28;;;2.20;;
22287;SDS011;11312;51.464;6.968;2023-02-13T01:49:38;5.97;;;2.70;;
22287;SDS011;11312;51.464;6.968;2023-02-13T01:52:05;5.18;;;2.08;;
22287;SDS011;11312;51.464;6.968;2023-02-13T01:54:32;5.03;;;2.30;;
22287;SDS011;11312;51.464;6.968;2023-02-13T01:57:07;4.70;;;2.35;;
22287;SDS011;11312;51.464;6.968;2023-02-13T01:59:39;3.83;;;1.80;;
22287;SDS011;11312;51.464;6.968;2023-02-13T02:02:16;3.95;;;1.92;;
22287;SDS011;11312;51.464;6.968;2023-02-13T02:04:42;4.18;;;1.77;;
22287;SDS011;11312;51.464;6.968;2023-02-13T02:07:12;4.35;;;1.80;;
22287;SDS011;11312;51.464;6.968;2023-02-13T02:09:42;5.57;;;2.10;;
22287;SDS011;11312;51.464;6.968;2023-02-13T02:14:51;6.00;;;2.50;;
22287;SDS011;11312;51.464;6.968;2023-02-13T02:17:18;4.65;;;2.50;;
22287;SDS011;11312;51.464;6.968;2023-02-13T02:35:49;3.88;;;1.90;;
22287;SDS011;11312;51.464;6.968;2023-02-13T02:41:04;4.22;;;1.95;;
22287;SDS011;11312;51.464;6.968;2023-02-13T02:44:10;3.50;;;1.73;;
22287;SDS011;11312;51.464;6.968;2023-02-13T02:47:06;3.25;;;1.67;;
22287;SDS011;11312;51.464;6.968;2023-02-13T02:56:22;5.38;;;2.30;;
22287;SDS011;11312;51.464;6.968;2023-02-13T02:58:32;4.60;;;2.05;;
22287;SDS011;11312;51.464;6.968;2023-02-13T03:01:32;6.07;;;2.58;;
22287;SDS011;11312;51.464;6.968;2023-02-13T03:04:29;6.40;;;3.05;;
22287;SDS011;11312;51.464;6.968;2023-02-13T03:07:18;8.07;;;2.03;;
22287;SDS011;11312;51.464;6.968;2023-02-13T03:09:50;4.97;;;2.15;;
22287;SDS011;11312;51.464;6.968;2023-02-13T03:12:43;4.80;;;2.30;;
22287;SDS011;11312;51.464;6.968;2023-02-13T03:15:36;3.03;;;1.60;;
22287;SDS011;11312;51.464;6.968;2023-02-13T03:18:24;4.35;;;1.90;;
22287;SDS011;11312;51.464;6.968;2023-02-13T03:21:34;3.70;;;1.80;;
22287;SDS011;11312;51.464;6.968;2023-02-13T03:24:16;3.08;;;1.63;;
22287;SDS011;11312;51.464;6.968;2023-02-13T03:30:12;4.53;;;2.03;;
22287;SDS011;11312;51.464;6.968;2023-02-13T03:32:52;3.85;;;1.98;;
22287;SDS011;11312;51.464;6.968;2023-02-13T03:38:41;4.43;;;1.90;;
22287;SDS011;11312;51.464;6.968;2023-02-13T03:46:35;4.70;;;2.03;;
22287;SDS011;11312;51.464;6.968;2023-02-13T03:49:05;3.03;;;1.60;;
22287;SDS011;11312;51.464;6.968;2023-02-13T03:51:55;3.33;;;1.70;;
22287;SDS011;11312;51.464;6.968;2023-02-13T03:54:26;3.95;;;1.70;;
22287;SDS011;11312;51.464;6.968;2023-02-13T03:57:17;3.78;;;1.75;;
22287;SDS011;11312;51.464;6.968;2023-02-13T04:00:04;4.80;;;2.13;;
22287;SDS011;11312;51.464;6.968;2023-02-13T04:02:33;3.33;;;1.67;;
22287;SDS011;11312;51.464;6.968;2023-02-13T04:05:12;5.10;;;2.25;;
22287;SDS011;11312;51.464;6.968;2023-02-13T04:07:42;4.90;;;2.08;;
22287;SDS011;11312;51.464;6.968;2023-02-13T04:10:09;4.38;;;1.95;;
22287;SDS011;11312;51.464;6.968;2023-02-13T04:15:35;4.50;;;2.03;;
22287;SDS011;11312;51.464;6.968;2023-02-13T04:18:21;4.07;;;1.83;;
22287;SDS011;11312;51.464;6.968;2023-02-13T04:20:51;4.93;;;2.20;;
22287;SDS011;11312;51.464;6.968;2023-02-13T04:23:17;4.20;;;1.90;;
22287;SDS011;11312;51.464;6.968;2023-02-13T04:25:44;6.60;;;3.20;;
22287;SDS011;11312;51.464;6.968;2023-02-13T04:28:12;4.13;;;1.92;;
22287;SDS011;11312;51.464;6.968;2023-02-13T04:30:38;3.00;;;1.50;;
22287;SDS011;11312;51.464;6.968;2023-02-13T04:33:04;4.93;;;1.98;;
22287;SDS011;11312;51.464;6.968;2023-02-13T04:35:29;5.35;;;2.17;;
22287;SDS011;11312;51.464;6.968;2023-02-13T04:37:55;6.03;;;2.35;;
22287;SDS011;11312;51.464;6.968;2023-02-13T04:40:20;4.10;;;2.05;;
22287;SDS011;11312;51.464;6.968;2023-02-13T04:42:46;3.35;;;1.70;;
22287;SDS011;11312;51.464;6.968;2023-02-13T04:45:13;3.55;;;1.70;;
22287;SDS011;11312;51.464;6.968;2023-02-13T04:47:39;4.50;;;1.98;;
22287;SDS011;11312;51.464;6.968;2023-02-13T04:50:05;4.32;;;2.05;;
22287;SDS011;11312;51.464;6.968;2023-02-13T04:52:31;3.67;;;1.70;;
22287;SDS011;11312;51.464;6.968;2023-02-13T04:54:56;3.42;;;1.70;;
22287;SDS011;11312;51.464;6.968;2023-02-13T04:57:22;6.25;;;2.60;;
22287;SDS011;11312;51.464;6.968;2023-02-13T04:59:48;3.90;;;1.80;;
22287;SDS011;11312;51.464;6.968;2023-02-13T05:02:13;3.47;;;1.73;;
22287;SDS011;11312;51.464;6.968;2023-02-13T05:04:39;3.88;;;1.80;;
22287;SDS011;11312;51.464;6.968;2023-02-13T05:07:04;3.78;;;1.88;;
22287;SDS011;11312;51.464;6.968;2023-02-13T05:09:30;4.57;;;2.00;;
22287;SDS011;11312;51.464;6.968;2023-02-13T05:11:56;4.85;;;2.10;;
22287;SDS011;11312;51.464;6.968;2023-02-13T05:14:21;3.58;;;1.80;;
22287;SDS011;11312;51.464;6.968;2023-02-13T05:16:47;3.78;;;1.80;;
22287;SDS011;11312;51.464;6.968;2023-02-13T05:19:13;4.43;;;2.15;;
22287;SDS011;11312;51.464;6.968;2023-02-13T05:21:40;4.68;;;2.08;;
22287;SDS011;11312;51.464;6.968;2023-02-13T05:24:24;3.50;;;1.70;;
22287;SDS011;11312;51.464;6.968;2023-02-13T05:26:50;4.18;;;1.92;;
22287;SDS011;11312;51.464;6.968;2023-02-13T05:29:15;4.28;;;2.03;;
22287;SDS011;11312;51.464;6.968;2023-02-13T05:31:51;4.93;;;2.00;;
22287;SDS011;11312;51.464;6.968;2023-02-13T05:34:19;4.75;;;2.05;;
22287;SDS011;11312;51.464;6.968;2023-02-13T05:36:45;5.10;;;2.22;;
22287;SDS011;11312;51.464;6.968;2023-02-13T05:39:11;4.68;;;2.25;;
22287;SDS011;11312;51.464;6.968;2023-02-13T05:41:37;5.30;;;2.47;;
22287;SDS011;11312;51.464;6.968;2023-02-13T05:44:03;5.22;;;2.25;;
22287;SDS011;11312;51.464;6.968;2023-02-13T05:46:29;4.57;;;2.15;;
22287;SDS011;11312;51.464;6.968;2023-02-13T05:48:54;7.15;;;2.47;;
22287;SDS011;11312;51.464;6.968;2023-02-13T05:51:20;5.13;;;2.45;;
22287;SDS011;11312;51.464;6.968;2023-02-13T05:53:46;8.10;;;2.75;;
22287;SDS011;11312;51.464;6.968;2023-02-13T05:56:11;6.05;;;2.45;;
22287;SDS011;11312;51.464;6.968;2023-02-13T05:58:37;7.25;;;2.78;;
22287;SDS011;11312;51.464;6.968;2023-02-13T06:01:03;5.22;;;2.22;;
22287;SDS011;11312;51.464;6.968;2023-02-13T06:03:29;4.55;;;2.00;;
22287;SDS011;11312;51.464;6.968;2023-02-13T06:05:55;6.07;;;2.78;;
22287;SDS011;11312;51.464;6.968;2023-02-13T06:08:21;4.55;;;1.98;;
22287;SDS011;11312;51.464;6.968;2023-02-13T06:10:48;5.28;;;2.30;;
22287;SDS011;11312;51.464;6.968;2023-02-13T06:13:14;6.50;;;2.63;;
22287;SDS011;11312;51.464;6.968;2023-02-13T06:15:40;5.65;;;2.03;;
22287;SDS011;11312;51.464;6.968;2023-02-13T06:18:06;5.82;;;2.55;;
22287;SDS011;11312;51.464;6.968;2023-02-13T06:20:32;5.65;;;1.75;;
22287;SDS011;11312;51.464;6.968;2023-02-13T06:22:58;7.40;;;2.78;;
22287;SDS011;11312;51.464;6.968;2023-02-13T06:25:24;5.80;;;2.33;;
22287;SDS011;11312;51.464;6.968;2023-02-13T06:27:50;4.93;;;2.30;;
22287;SDS011;11312;51.464;6.968;2023-02-13T06:30:16;5.60;;;2.28;;
22287;SDS011;11312;51.464;6.968;2023-02-13T06:32:42;7.20;;;3.03;;
22287;SDS011;11312;51.464;6.968;2023-02-13T06:35:10;6.10;;;2.35;;
22287;SDS011;11312;51.464;6.968;2023-02-13T06:37:35;5.90;;;2.53;;
22287;SDS011;11312;51.464;6.968;2023-02-13T06:40:01;5.50;;;2.25;;
22287;SDS011;11312;51.464;6.968;2023-02-13T06:42:26;8.13;;;2.92;;
22287;SDS011;11312;51.464;6.968;2023-02-13T06:44:52;4.35;;;1.95;;
22287;SDS011;11312;51.464;6.968;2023-02-13T06:47:18;3.25;;;1.60;;
22287;SDS011;11312;51.464;6.968;2023-02-13T06:49:43;4.18;;;1.88;;
22287;SDS011;11312;51.464;6.968;2023-02-13T06:52:09;4.65;;;2.08;;
22287;SDS011;11312;51.464;6.968;2023-02-13T06:54:34;5.82;;;2.58;;
22287;SDS011;11312;51.464;6.968;2023-02-13T06:57:00;4.50;;;1.95;;
22287;SDS011;11312;51.464;6.968;2023-02-13T06:59:26;4.63;;;2.05;;
22287;SDS011;11312;51.464;6.968;2023-02-13T07:01:51;9.52;;;2.72;;
22287;SDS011;11312;51.464;6.968;2023-02-13T07:04:17;5.25;;;2.20;;
22287;SDS011;11312;51.464;6.968;2023-02-13T07:06:43;6.68;;;2.47;;
22287;SDS011;11312;51.464;6.968;2023-02-13T07:09:08;5.60;;;2.42;;
22287;SDS011;11312;51.464;6.968;2023-02-13T07:11:37;5.72;;;2.40;;
22287;SDS011;11312;51.464;6.968;2023-02-13T07:14:05;4.95;;;2.35;;
22287;SDS011;11312;51.464;6.968;2023-02-13T07:16:32;13.65;;;2.70;;
22287;SDS011;11312;51.464;6.968;2023-02-13T07:18:57;5.05;;;2.05;;
22287;SDS011;11312;51.464;6.968;2023-02-13T07:21:23;5.65;;;2.15;;
22287;SDS011;11312;51.464;6.968;2023-02-13T07:23:49;7.32;;;2.42;;
22287;SDS011;11312;51.464;6.968;2023-02-13T07:26:15;5.32;;;2.25;;
22287;SDS011;11312;51.464;6.968;2023-02-13T07:28:41;7.32;;;2.22;;
22287;SDS011;11312;51.464;6.968;2023-02-13T07:31:07;4.78;;;2.22;;
22287;SDS011;11312;51.464;6.968;2023-02-13T07:33:33;4.75;;;2.08;;
22287;SDS011;11312;51.464;6.968;2023-02-13T07:35:59;4.75;;;2.17;;
22287;SDS011;11312;51.464;6.968;2023-02-13T07:38:27;6.88;;;2.95;;
22287;SDS011;11312;51.464;6.968;2023-02-13T07:41:02;4.93;;;2.17;;
22287;SDS011;11312;51.464;6.968;2023-02-13T07:43:28;5.05;;;2.40;;
22287;SDS011;11312;51.464;6.968;2023-02-13T07:45:58;4.53;;;2.22;;
22287;SDS011;11312;51.464;6.968;2023-02-13T07:48:25;5.82;;;2.55;;
22287;SDS011;11312;51.464;6.968;2023-02-13T07:50:51;4.40;;;2.05;;
22287;SDS011;11312;51.464;6.968;2023-02-13T07:53:17;5.50;;;2.28;;
22287;SDS011;11312;51.464;6.968;2023-02-13T07:55:43;6.38;;;2.45;;
22287;SDS011;11312;51.464;6.968;2023-02-13T07:58:08;6.72;;;2.70;;
22287;SDS011;11312;51.464;6.968;2023-02-13T08:00:34;5.85;;;2.20;;
22287;SDS011;11312;51.464;6.968;2023-02-13T08:03:00;4.07;;;1.80;;
22287;SDS011;11312;51.464;6.968;2023-02-13T08:05:27;5.10;;;2.33;;
22287;SDS011;11312;51.464;6.968;2023-02-13T08:07:53;6.20;;;2.47;;
22287;SDS011;11312;51.464;6.968;2023-02-13T08:10:19;5.90;;;2.67;;
22287;SDS011;11312;51.464;6.968;2023-02-13T08:13:04;5.63;;;2.45;;
22287;SDS011;11312;51.464;6.968;2023-02-13T08:15:31;7.88;;;2.97;;
22287;SDS011;11312;51.464;6.968;2023-02-13T08:17:56;4.68;;;2.28;;
22287;SDS011;11312;51.464;6.968;2023-02-13T08:20:22;5.15;;;2.30;;
22287;SDS011;11312;51.464;6.968;2023-02-13T08:22:48;4.97;;;2.25;;
22287;SDS011;11312;51.464;6.968;2023-02-13T08:25:13;5.68;;;2.20;;
22287;SDS011;11312;51.464;6.968;2023-02-13T08:27:39;5.57;;;2.38;;
22287;SDS011;11312;51.464;6.968;2023-02-13T08:30:05;5.63;;;1.90;;
22287;SDS011;11312;51.464;6.968;2023-02-13T08:32:31;5.85;;;2.10;;
22287;SDS011;11312;51.464;6.968;2023-02-13T08:34:57;5.63;;;1.70;;
22287;SDS011;11312;51.464;6.968;2023-02-13T08:37:23;4.13;;;1.90;;
22287;SDS011;11312;51.464;6.968;2023-02-13T08:39:48;4.35;;;1.95;;
22287;SDS011;11312;51.464;6.968;2023-02-13T08:42:14;17.10;;;3.35;;
22287;SDS011;11312;51.464;6.968;2023-02-13T08:44:40;5.20;;;2.47;;
22287;SDS011;11312;51.464;6.968;2023-02-13T08:47:06;4.88;;;2.33;;
22287;SDS011;11312;51.464;6.968;2023-02-13T08:49:33;5.18;;;2.30;;
22287;SDS011;11312;51.464;6.968;2023-02-13T08:51:59;5.43;;;2.45;;
22287;SDS011;11312;51.464;6.968;2023-02-13T08:54:26;4.88;;;1.98;;
22287;SDS011;11312;51.464;6.968;2023-02-13T08:56:52;4.45;;;2.08;;
22287;SDS011;11312;51.464;6.968;2023-02-13T08:59:18;5.50;;;2.67;;
22287;SDS011;11312;51.464;6.968;2023-02-13T09:01:45;2.88;;;1.60;;
22287;SDS011;11312;51.464;6.968;2023-02-13T09:04:11;4.47;;;2.10;;
22287;SDS011;11312;51.464;6.968;2023-02-13T09:06:40;24.00;;;3.35;;
22287;SDS011;11312;51.464;6.968;2023-02-13T09:09:06;5.10;;;2.20;;
22287;SDS011;11312;51.464;6.968;2023-02-13T09:11:32;4.72;;;2.03;;
22287;SDS011;11312;51.464;6.968;2023-02-13T09:13:57;3.30;;;1.65;;
22287;SDS011;11312;51.464;6.968;2023-02-13T09:16:23;4.63;;;2.00;;
22287;SDS011;11312;51.464;6.968;2023-02-13T09:18:49;6.13;;;2.30;;
22287;SDS011;11312;51.464;6.968;2023-02-13T09:21:15;4.72;;;2.10;;
22287;SDS011;11312;51.464;6.968;2023-02-13T09:23:42;4.78;;;2.05;;
22287;SDS011;11312;51.464;6.968;2023-02-13T09:26:09;5.03;;;2.15;;
22287;SDS011;11312;51.464;6.968;2023-02-13T09:28:36;4.75;;;2.03;;
22287;SDS011;11312;51.464;6.968;2023-02-13T09:31:07;4.68;;;2.00;;
22287;SDS011;11312;51.464;6.968;2023-02-13T09:36:09;5.72;;;2.15;;
22287;SDS011;11312;51.464;6.968;2023-02-13T09:38:38;3.05;;;1.50;;
22287;SDS011;11312;51.464;6.968;2023-02-13T09:41:15;2.95;;;1.40;;
22287;SDS011;11312;51.464;6.968;2023-02-13T09:46:51;4.90;;;1.98;;
22287;SDS011;11312;51.464;6.968;2023-02-13T09:49:04;1.63;;;1.10;;
22287;SDS011;11312;51.464;6.968;2023-02-13T09:51:41;2.22;;;1.27;;
22287;SDS011;11312;51.464;6.968;2023-02-13T09:54:11;3.97;;;1.58;;
22287;SDS011;11312;51.464;6.968;2023-02-13T09:56:43;1.73;;;1.08;;
22287;SDS011;11312;51.464;6.968;2023-02-13T10:07:42;3.53;;;1.38;;
22287;SDS011;11312;51.464;6.968;2023-02-13T10:10:17;1.25;;;0.75;;
22287;SDS011;11312;51.464;6.968;2023-02-13T10:13:03;3.83;;;1.10;;
22287;SDS011;11312;51.464;6.968;2023-02-13T10:15:50;1.45;;;0.82;;
22287;SDS011;11312;51.464;6.968;2023-02-13T10:18:37;2.42;;;1.02;;
22287;SDS011;11312;51.464;6.968;2023-02-13T10:21:12;3.17;;;1.20;;
22287;SDS011;11312;51.464;6.968;2023-02-13T10:23:46;3.07;;;1.27;;
22287;SDS011;11312;51.464;6.968;2023-02-13T10:31:32;3.17;;;1.20;;
22287;SDS011;11312;51.464;6.968;2023-02-13T10:49:14;1.35;;;0.68;;
22287;SDS011;11312;51.464;6.968;2023-02-13T10:52:05;1.60;;;0.70;;
22287;SDS011;11312;51.464;6.968;2023-02-13T11:04:47;1.20;;;0.60;;
22287;SDS011;11312;51.464;6.968;2023-02-13T11:07:17;4.10;;;1.38;;
22287;SDS011;11312;51.464;6.968;2023-02-13T11:09:46;2.33;;;0.90;;
22287;SDS011;11312;51.464;6.968;2023-02-13T11:12:23;1.55;;;0.85;;
22287;SDS011;11312;51.464;6.968;2023-02-13T11:47:29;0.63;;;0.17;;
22287;SDS011;11312;51.464;6.968;2023-02-13T11:50:01;0.90;;;0.50;;
22287;SDS011;11312;51.464;6.968;2023-02-13T11:52:32;1.98;;;0.70;;
22287;SDS011;11312;51.464;6.968;2023-02-13T11:55:01;1.20;;;0.43;;
22287;SDS011;11312;51.464;6.968;2023-02-13T11:57:35;0.90;;;0.40;;
22287;SDS011;11312;51.464;6.968;2023-02-13T12:00:24;2.17;;;0.68;;
22287;SDS011;11312;51.464;6.968;2023-02-13T12:02:55;3.47;;;1.20;;
22287;SDS011;11312;51.464;6.968;2023-02-13T12:05:24;3.60;;;1.13;;
22287;SDS011;11312;51.464;6.968;2023-02-13T12:07:53;4.55;;;1.17;;
22287;SDS011;11312;51.464;6.968;2023-02-13T12:10:24;2.38;;;0.80;;
22287;SDS011;11312;51.464;6.968;2023-02-13T12:15:35;1.92;;;0.80;;
22287;SDS011;11312;51.464;6.968;2023-02-13T12:20:27;1.38;;;0.47;;
22287;SDS011;11312;51.464;6.968;2023-02-13T12:34:24;3.42;;;0.82;;
22287;SDS011;11312;51.464;6.968;2023-02-13T12:45:36;0.98;;;0.28;;
22287;SDS011;11312;51.464;6.968;2023-02-13T13:27:00;2.53;;;0.88;;
22287;SDS011;11312;51.464;6.968;2023-02-13T13:29:11;1.73;;;0.63;;
22287;SDS011;11312;51.464;6.968;2023-02-13T13:31:45;1.75;;;0.57;;
22287;SDS011;11312;51.464;6.968;2023-02-13T13:34:20;2.13;;;0.63;;
22287;SDS011;11312;51.464;6.968;2023-02-13T13:36:50;0.52;;;0.30;;
22287;SDS011;11312;51.464;6.968;2023-02-13T13:39:31;2.55;;;1.17;;
22287;SDS011;11312;51.464;6.968;2023-02-13T13:42:15;1.52;;;0.63;;
22287;SDS011;11312;51.464;6.968;2023-02-13T13:44:51;0.75;;;0.30;;
22287;SDS011;11312;51.464;6.968;2023-02-13T14:06:14;1.15;;;0.43;;
22287;SDS011;11312;51.464;6.968;2023-02-13T14:14:42;0.17;;;0.17;;
22287;SDS011;11312;51.464;6.968;2023-02-13T14:16:55;2.28;;;0.75;;
22287;SDS011;11312;51.464;6.968;2023-02-13T14:19:28;2.25;;;0.77;;
22287;SDS011;11312;51.464;6.968;2023-02-13T14:24:58;0.68;;;0.40;;
22287;SDS011;11312;51.464;6.968;2023-02-13T14:27:29;1.25;;;0.60;;
22287;SDS011;11312;51.464;6.968;2023-02-13T14:29:58;1.70;;;0.75;;
22287;SDS011;11312;51.464;6.968;2023-02-13T14:34:55;1.55;;;0.65;;
22287;SDS011;11312;51.464;6.968;2023-02-13T14:37:33;0.90;;;0.47;;
22287;SDS011;11312;51.464;6.968;2023-02-13T14:42:50;5.55;;;1.20;;
22287;SDS011;11312;51.464;6.968;2023-02-13T14:45:22;0.30;;;0.30;;
22287;SDS011;11312;51.464;6.968;2023-02-13T14:47:56;0.82;;;0.40;;
22287;SDS011;11312;51.464;6.968;2023-02-13T14:50:31;0.38;;;0.38;;
22287;SDS011;11312;51.464;6.968;2023-02-13T14:53:09;0.95;;;0.52;;
22287;SDS011;11312;51.464;6.968;2023-02-13T14:55:45;0.98;;;0.65;;
22287;SDS011;11312;51.464;6.968;2023-02-13T14:58:21;0.77;;;0.52;;
22287;SDS011;11312;51.464;6.968;2023-02-13T15:00:58;0.43;;;0.43;;
22287;SDS011;11312;51.464;6.968;2023-02-13T15:06:06;1.45;;;0.73;;
22287;SDS011;11312;51.464;6.968;2023-02-13T15:08:44;1.42;;;0.60;;
22287;SDS011;11312;51.464;6.968;2023-02-13T15:11:22;3.55;;;1.23;;
22287;SDS011;11312;51.464;6.968;2023-02-13T15:17:02;1.35;;;0.70;;
22287;SDS011;11312;51.464;6.968;2023-02-13T15:19:49;0.95;;;0.90;;
22287;SDS011;11312;51.464;6.968;2023-02-13T15:22:21;0.93;;;0.70;;
22287;SDS011;11312;51.464;6.968;2023-02-13T15:24:57;1.15;;;0.80;;
22287;SDS011;11312;51.464;6.968;2023-02-13T15:27:27;1.95;;;0.88;;
22287;SDS011;11312;51.464;6.968;2023-02-13T15:32:27;2.83;;;1.38;;
22287;SDS011;11312;51.464;6.968;2023-02-13T15:34:54;1.45;;;0.98;;
22287;SDS011;11312;51.464;6.968;2023-02-13T15:37:21;3.22;;;1.30;;
22287;SDS011;11312;51.464;6.968;2023-02-13T15:39:48;2.55;;;0.80;;
22287;SDS011;11312;51.464;6.968;2023-02-13T15:42:14;2.45;;;1.08;;
22287;SDS011;11312;51.464;6.968;2023-02-13T15:44:40;1.00;;;0.80;;
22287;SDS011;11312;51.464;6.968;2023-02-13T15:47:21;0.98;;;0.82;;
22287;SDS011;11312;51.464;6.968;2023-02-13T15:49:53;5.13;;;1.00;;
22287;SDS011;11312;51.464;6.968;2023-02-13T15:52:30;2.10;;;1.13;;
22287;SDS011;11312;51.464;6.968;2023-02-13T15:54:59;4.13;;;1.73;;
22287;SDS011;11312;51.464;6.968;2023-02-13T15:57:25;1.02;;;0.88;;
22287;SDS011;11312;51.464;6.968;2023-02-13T15:59:52;1.10;;;0.98;;
22287;SDS011;11312;51.464;6.968;2023-02-13T16:02:24;1.35;;;0.95;;
22287;SDS011;11312;51.464;6.968;2023-02-13T16:04:57;1.75;;;1.17;;
22287;SDS011;11312;51.464;6.968;2023-02-13T16:07:26;3.88;;;1.60;;
22287;SDS011;11312;51.464;6.968;2023-02-13T16:09:51;4.72;;;2.28;;
22287;SDS011;11312;51.464;6.968;2023-02-13T16:12:45;1.13;;;1.02;;
22287;SDS011;11312;51.464;6.968;2023-02-13T16:15:13;3.33;;;1.52;;
22287;SDS011;11312;51.464;6.968;2023-02-13T16:17:43;2.58;;;1.45;;
22287;SDS011;11312;51.464;6.968;2023-02-13T16:27:48;6.05;;;2.17;;
22287;SDS011;11312;51.464;6.968;2023-02-13T16:30:25;1.33;;;1.08;;
22287;SDS011;11312;51.464;6.968;2023-02-13T16:32:53;2.65;;;1.30;;
22287;SDS011;11312;51.464;6.968;2023-02-13T16:35:53;3.67;;;1.70;;
22287;SDS011;11312;51.464;6.968;2023-02-13T16:38:42;1.20;;;1.10;;
22287;SDS011;11312;51.464;6.968;2023-02-13T16:43:46;8.57;;;3.05;;
22287;SDS011;11312;51.464;6.968;2023-02-13T16:52:09;3.55;;;1.67;;
22287;SDS011;11312;51.464;6.968;2023-02-13T16:56:56;3.00;;;1.63;;
22287;SDS011;11312;51.464;6.968;2023-02-13T17:02:13;3.38;;;1.63;;
22287;SDS011;11312;51.464;6.968;2023-02-13T17:04:56;1.60;;;1.30;;
22287;SDS011;11312;51.464;6.968;2023-02-13T17:12:51;3.45;;;2.22;;
22287;SDS011;11312;51.464;6.968;2023-02-13T17:15:20;2.72;;;1.50;;
22287;SDS011;11312;51.464;6.968;2023-02-13T17:17:48;2.55;;;1.38;;
22287;SDS011;11312;51.464;6.968;2023-02-13T17:20:27;2.40;;;1.50;;
22287;SDS011;11312;51.464;6.968;2023-02-13T17:22:56;1.80;;;1.30;;
22287;SDS011;11312;51.464;6.968;2023-02-13T17:25:27;3.97;;;1.80;;
22287;SDS011;11312;51.464;6.968;2023-02-13T17:27:59;4.03;;;1.77;;
22287;SDS011;11312;51.464;6.968;2023-02-13T17:30:27;3.40;;;1.58;;
22287;SDS011;11312;51.464;6.968;2023-02-13T17:32:59;2.70;;;1.50;;
22287;SDS011;11312;51.464;6.968;2023-02-13T17:35:29;2.08;;;1.33;;
22287;SDS011;11312;51.464;6.968;2023-02-13T17:37:55;3.13;;;1.48;;
22287;SDS011;11312;51.464;6.968;2023-02-13T17:40:21;6.28;;;2.63;;
22287;SDS011;11312;51.464;6.968;2023-02-13T17:42:50;3.45;;;1.70;;
22287;SDS011;11312;51.464;6.968;2023-02-13T17:45:18;3.47;;;1.63;;
22287;SDS011;11312;51.464;6.968;2023-02-13T17:47:45;4.75;;;2.13;;
22287;SDS011;11312;51.464;6.968;2023-02-13T17:50:11;4.03;;;1.75;;
22287;SDS011;11312;51.464;6.968;2023-02-13T17:52:38;2.85;;;1.70;;
22287;SDS011;11312;51.464;6.968;2023-02-13T17:55:05;9.55;;;3.97;;
22287;SDS011;11312;51.464;6.968;2023-02-13T17:57:38;12.93;;;3.20;;
22287;SDS011;11312;51.464;6.968;2023-02-13T18:00:04;4.00;;;1.83;;
22287;SDS011;11312;51.464;6.968;2023-02-13T18:02:30;6.90;;;2.75;;
22287;SDS011;11312;51.464;6.968;2023-02-13T18:04:57;7.22;;;2.47;;
22287;SDS011;11312;51.464;6.968;2023-02-13T18:07:24;5.75;;;2.47;;
22287;SDS011;11312;51.464;6.968;2023-02-13T18:09:49;2.60;;;1.50;;
22287;SDS011;11312;51.464;6.968;2023-02-13T18:12:19;3.53;;;1.92;;
22287;SDS011;11312;51.464;6.968;2023-02-13T18:14:47;3.10;;;1.58;;
22287;SDS011;11312;51.464;6.968;2023-02-13T18:17:14;5.57;;;2.45;;
22287;SDS011;11312;51.464;6.968;2023-02-13T18:19:41;5.30;;;2.10;;
22287;SDS011;11312;51.464;6.968;2023-02-13T18:22:07;3.05;;;1.60;;
22287;SDS011;11312;51.464;6.968;2023-02-13T18:24:35;5.50;;;2.13;;
22287;SDS011;11312;51.464;6.968;2023-02-13T18:27:03;3.45;;;1.80;;
22287;SDS011;11312;51.464;6.968;2023-02-13T18:29:29;3.40;;;1.70;;
22287;SDS011;11312;51.464;6.968;2023-02-13T18:31:55;2.60;;;1.48;;
22287;SDS011;11312;51.464;6.968;2023-02-13T18:34:22;2.50;;;1.50;;
22287;SDS011;11312;51.464;6.968;2023-02-13T18:36:48;4.05;;;2.00;;
22287;SDS011;11312;51.464;6.968;2023-02-13T18:39:15;4.70;;;2.00;;
22287;SDS011;11312;51.464;6.968;2023-02-13T18:41:41;2.30;;;1.40;;
22287;SDS011;11312;51.464;6.968;2023-02-13T18:44:07;4.70;;;2.13;;
22287;SDS011;11312;51.464;6.968;2023-02-13T18:46:33;3.00;;;1.65;;
22287;SDS011;11312;51.464;6.968;2023-02-13T18:48:59;3.22;;;1.60;;
22287;SDS011;11312;51.464;6.968;2023-02-13T18:51:25;7.32;;;2.85;;
22287;SDS011;11312;51.464;6.968;2023-02-13T18:53:51;2.90;;;1.55;;
22287;SDS011;11312;51.464;6.968;2023-02-13T18:56:16;8.60;;;3.42;;
22287;SDS011;11312;51.464;6.968;2023-02-13T18:58:44;3.78;;;1.73;;
22287;SDS011;11312;51.464;6.968;2023-02-13T19:01:12;3.42;;;1.73;;
22287;SDS011;11312;51.464;6.968;2023-02-13T19:03:40;2.53;;;1.50;;
22287;SDS011;11312;51.464;6.968;2023-02-13T19:06:06;2.88;;;1.50;;
22287;SDS011;11312;51.464;6.968;2023-02-13T19:08:33;4.78;;;2.22;;
22287;SDS011;11312;51.464;6.968;2023-02-13T19:11:07;3.95;;;1.67;;
22287;SDS011;11312;51.464;6.968;2023-02-13T19:13:34;5.82;;;2.13;;
22287;SDS011;11312;51.464;6.968;2023-02-13T19:16:34;3.75;;;1.70;;
22287;SDS011;11312;51.464;6.968;2023-02-13T19:18:54;3.60;;;2.13;;
22287;SDS011;11312;51.464;6.968;2023-02-13T19:21:23;4.53;;;2.00;;